sensor_id;sensor_type;location;lat;lon;timestamp;P1;durP1;ratioP1;P2;durP2;ratioP2
5937;SDS011;2994;51.220;4.412;2024-01-27T00:02:18;8.50;;;6.93;;
5937;SDS011;2994;51.220;4.412;2024-01-27T00:04:43;8.63;;;7.03;;
5937;SDS011;2994;51.220;4.412;2024-01-27T00:07:09;11.57;;;7.13;;
5937;SDS011;2994;51.220;4.412;2024-01-27T00:09:34;9.07;;;7.87;;
5937;SDS011;2994;51.220;4.412;2024-01-27T00:11:59;11.53;;;6.53;;
5937;SDS011;2994;51.220;4.412;2024-01-27T00:14:25;12.20;;;6.87;;
5937;SDS011;2994;51.220;4.412;2024-01-27T00:16:51;11.63;;;6.63;;
5937;SDS011;2994;51.220;4.412;2024-01-27T00:19:16;10.07;;;6.30;;
5937;SDS011;2994;51.220;4.412;2024-01-27T00:21:42;8.60;;;6.17;;
5937;SDS011;2994;51.220;4.412;2024-01-27T00:24:08;10.37;;;6.50;;
5937;SDS011;2994;51.220;4.412;2024-01-27T00:26:33;11.17;;;6.00;;
5937;SDS011;2994;51.220;4.412;2024-01-27T00:28:59;13.93;;;7.50;;
5937;SDS011;2994;51.220;4.412;2024-01-27T00:31:24;14.03;;;6.77;;
5937;SDS011;2994;51.220;4.412;2024-01-27T00:33:49;12.87;;;6.97;;
5937;SDS011;2994;51.220;4.412;2024-01-27T00:36:15;10.93;;;8.00;;
5937;SDS011;2994;51.220;4.412;2024-01-27T00:38:40;12.40;;;7.40;;
5937;SDS011;2994;51.220;4.412;2024-01-27T00:41:06;13.93;;;7.27;;
5937;SDS011;2994;51.220;4.412;2024-01-27T00:43:31;8.90;;;7.50;;
5937;SDS011;2994;51.220;4.412;2024-01-27T00:45:57;10.53;;;7.17;;
5937;SDS011;2994;51.220;4.412;2024-01-27T00:48:22;9.57;;;7.60;;
5937;SDS011;2994;51.220;4.412;2024-01-27T00:50:48;8.90;;;7.90;;
5937;SDS011;2994;51.220;4.412;2024-01-27T00:53:14;10.27;;;7.30;;
5937;SDS011;2994;51.220;4.412;2024-01-27T00:55:39;10.17;;;6.27;;
5937;SDS011;2994;51.220;4.412;2024-01-27T00:58:06;14.53;;;7.53;;
5937;SDS011;2994;51.220;4.412;2024-01-27T01:00:32;8.33;;;7.27;;
5937;SDS011;2994;51.220;4.412;2024-01-27T01:02:57;11.40;;;6.50;;
5937;SDS011;2994;51.220;4.412;2024-01-27T01:05:23;12.30;;;7.73;;
5937;SDS011;2994;51.220;4.412;2024-01-27T01:07:48;11.13;;;8.07;;
5937;SDS011;2994;51.220;4.412;2024-01-27T01:10:14;13.53;;;8.20;;
5937;SDS011;2994;51.220;4.412;2024-01-27T01:12:39;13.93;;;9.23;;
5937;SDS011;2994;51.220;4.412;2024-01-27T01:15:05;10.13;;;6.83;;
5937;SDS011;2994;51.220;4.412;2024-01-27T01:17:31;10.93;;;7.00;;
5937;SDS011;2994;51.220;4.412;2024-01-27T01:19:56;10.50;;;7.50;;
5937;SDS011;2994;51.220;4.412;2024-01-27T01:22:22;11.60;;;8.40;;
5937;SDS011;2994;51.220;4.412;2024-01-27T01:24:47;9.97;;;7.00;;
5937;SDS011;2994;51.220;4.412;2024-01-27T01:27:13;12.33;;;7.73;;
5937;SDS011;2994;51.220;4.412;2024-01-27T01:29:38;10.10;;;7.63;;
5937;SDS011;2994;51.220;4.412;2024-01-27T01:32:04;10.40;;;7.90;;
5937;SDS011;2994;51.220;4.412;2024-01-27T01:34:30;12.33;;;7.60;;
5937;SDS011;2994;51.220;4.412;2024-01-27T01:36:56;9.40;;;6.73;;
5937;SDS011;2994;51.220;4.412;2024-01-27T01:39:22;10.63;;;7.53;;
5937;SDS011;2994;51.220;4.412;2024-01-27T01:41:48;13.73;;;7.67;;
5937;SDS011;2994;51.220;4.412;2024-01-27T01:44:13;11.53;;;7.30;;
5937;SDS011;2994;51.220;4.412;2024-01-27T01:46:39;11.90;;;6.80;;
5937;SDS011;2994;51.220;4.412;2024-01-27T01:49:04;11.50;;;7.30;;
5937;SDS011;2994;51.220;4.412;2024-01-27T01:51:30;8.33;;;6.63;;
5937;SDS011;2994;51.220;4.412;2024-01-27T01:53:59;15.17;;;7.20;;
5937;SDS011;2994;51.220;4.412;2024-01-27T01:56:25;9.40;;;7.70;;
5937;SDS011;2994;51.220;4.412;2024-01-27T01:58:50;12.97;;;7.97;;
5937;SDS011;2994;51.220;4.412;2024-01-27T02:01:19;14.10;;;7.77;;
5937;SDS011;2994;51.220;4.412;2024-01-27T02:03:55;11.20;;;7.87;;
5937;SDS011;2994;51.220;4.412;2024-01-27T02:06:22;10.80;;;7.20;;
5937;SDS011;2994;51.220;4.412;2024-01-27T02:08:47;11.83;;;7.50;;
5937;SDS011;2994;51.220;4.412;2024-01-27T02:11:13;11.00;;;7.17;;
5937;SDS011;2994;51.220;4.412;2024-01-27T02:13:38;9.27;;;6.80;;
5937;SDS011;2994;51.220;4.412;2024-01-27T02:16:04;13.03;;;7.60;;
5937;SDS011;2994;51.220;4.412;2024-01-27T02:18:30;10.83;;;7.80;;
5937;SDS011;2994;51.220;4.412;2024-01-27T02:20:56;12.67;;;7.47;;
5937;SDS011;2994;51.220;4.412;2024-01-27T02:23:21;12.40;;;7.60;;
5937;SDS011;2994;51.220;4.412;2024-01-27T02:25:47;10.60;;;7.07;;
5937;SDS011;2994;51.220;4.412;2024-01-27T02:28:12;11.40;;;7.70;;
5937;SDS011;2994;51.220;4.412;2024-01-27T02:30:38;10.17;;;7.13;;
5937;SDS011;2994;51.220;4.412;2024-01-27T02:33:04;17.97;;;7.03;;
5937;SDS011;2994;51.220;4.412;2024-01-27T02:35:30;10.80;;;7.63;;
5937;SDS011;2994;51.220;4.412;2024-01-27T02:37:56;12.00;;;7.20;;
5937;SDS011;2994;51.220;4.412;2024-01-27T02:40:22;11.23;;;7.43;;
5937;SDS011;2994;51.220;4.412;2024-01-27T02:42:47;10.00;;;7.90;;
5937;SDS011;2994;51.220;4.412;2024-01-27T02:45:13;9.40;;;7.27;;
5937;SDS011;2994;51.220;4.412;2024-01-27T02:47:39;9.77;;;7.23;;
5937;SDS011;2994;51.220;4.412;2024-01-27T02:50:05;9.33;;;7.77;;
5937;SDS011;2994;51.220;4.412;2024-01-27T02:52:31;9.90;;;6.43;;
5937;SDS011;2994;51.220;4.412;2024-01-27T02:54:57;12.47;;;7.73;;
5937;SDS011;2994;51.220;4.412;2024-01-27T02:57:23;11.13;;;6.70;;
5937;SDS011;2994;51.220;4.412;2024-01-27T02:59:48;14.90;;;8.00;;
5937;SDS011;2994;51.220;4.412;2024-01-27T03:02:14;16.17;;;7.67;;
5937;SDS011;2994;51.220;4.412;2024-01-27T03:04:40;11.00;;;8.43;;
5937;SDS011;2994;51.220;4.412;2024-01-27T03:07:06;11.73;;;8.40;;
5937;SDS011;2994;51.220;4.412;2024-01-27T03:09:31;12.63;;;7.47;;
5937;SDS011;2994;51.220;4.412;2024-01-27T03:11:57;9.77;;;7.37;;
5937;SDS011;2994;51.220;4.412;2024-01-27T03:14:23;12.93;;;8.50;;
5937;SDS011;2994;51.220;4.412;2024-01-27T03:16:49;12.50;;;8.60;;
5937;SDS011;2994;51.220;4.412;2024-01-27T03:19:18;13.10;;;7.10;;
5937;SDS011;2994;51.220;4.412;2024-01-27T03:21:43;12.03;;;7.97;;
5937;SDS011;2994;51.220;4.412;2024-01-27T03:24:09;10.50;;;7.40;;
5937;SDS011;2994;51.220;4.412;2024-01-27T03:26:35;12.63;;;8.07;;
5937;SDS011;2994;51.220;4.412;2024-01-27T03:29:00;8.60;;;7.50;;
5937;SDS011;2994;51.220;4.412;2024-01-27T03:31:32;11.50;;;8.50;;
5937;SDS011;2994;51.220;4.412;2024-01-27T03:33:59;11.77;;;8.80;;
5937;SDS011;2994;51.220;4.412;2024-01-27T03:36:25;10.70;;;9.10;;
5937;SDS011;2994;51.220;4.412;2024-01-27T03:38:51;9.20;;;8.20;;
5937;SDS011;2994;51.220;4.412;2024-01-27T03:41:16;13.37;;;9.13;;
5937;SDS011;2994;51.220;4.412;2024-01-27T03:43:42;10.90;;;8.47;;
5937;SDS011;2994;51.220;4.412;2024-01-27T03:46:07;10.50;;;8.57;;
5937;SDS011;2994;51.220;4.412;2024-01-27T03:48:33;13.40;;;8.27;;
5937;SDS011;2994;51.220;4.412;2024-01-27T03:51:00;14.90;;;9.20;;
5937;SDS011;2994;51.220;4.412;2024-01-27T03:53:26;11.17;;;7.97;;
5937;SDS011;2994;51.220;4.412;2024-01-27T03:55:52;10.90;;;7.90;;
5937;SDS011;2994;51.220;4.412;2024-01-27T03:58:18;9.10;;;7.40;;
5937;SDS011;2994;51.220;4.412;2024-01-27T04:00:43;11.63;;;8.50;;
5937;SDS011;2994;51.220;4.412;2024-01-27T04:03:09;10.40;;;8.20;;
5937;SDS011;2994;51.220;4.412;2024-01-27T04:05:34;14.50;;;8.10;;
5937;SDS011;2994;51.220;4.412;2024-01-27T04:08:00;9.60;;;7.40;;
5937;SDS011;2994;51.220;4.412;2024-01-27T04:10:25;12.07;;;8.90;;
5937;SDS011;2994;51.220;4.412;2024-01-27T04:12:51;16.90;;;8.87;;
5937;SDS011;2994;51.220;4.412;2024-01-27T04:15:17;11.70;;;8.23;;
5937;SDS011;2994;51.220;4.412;2024-01-27T04:17:42;11.90;;;8.13;;
5937;SDS011;2994;51.220;4.412;2024-01-27T04:20:08;13.50;;;8.23;;
5937;SDS011;2994;51.220;4.412;2024-01-27T04:22:34;12.40;;;8.13;;
5937;SDS011;2994;51.220;4.412;2024-01-27T04:25:00;13.57;;;7.97;;
5937;SDS011;2994;51.220;4.412;2024-01-27T04:27:29;10.20;;;7.83;;
5937;SDS011;2994;51.220;4.412;2024-01-27T04:29:55;10.70;;;8.40;;
5937;SDS011;2994;51.220;4.412;2024-01-27T04:32:22;10.23;;;7.93;;
5937;SDS011;2994;51.220;4.412;2024-01-27T04:34:48;16.37;;;9.80;;
5937;SDS011;2994;51.220;4.412;2024-01-27T04:37:14;12.43;;;8.00;;
5937;SDS011;2994;51.220;4.412;2024-01-27T04:39:39;11.00;;;8.67;;
5937;SDS011;2994;51.220;4.412;2024-01-27T04:42:05;13.00;;;8.17;;
5937;SDS011;2994;51.220;4.412;2024-01-27T04:44:31;15.97;;;8.73;;
5937;SDS011;2994;51.220;4.412;2024-01-27T04:46:57;11.00;;;8.73;;
5937;SDS011;2994;51.220;4.412;2024-01-27T04:49:23;10.77;;;9.07;;
5937;SDS011;2994;51.220;4.412;2024-01-27T04:51:49;10.60;;;7.77;;
5937;SDS011;2994;51.220;4.412;2024-01-27T04:54:15;13.07;;;7.77;;
5937;SDS011;2994;51.220;4.412;2024-01-27T04:56:40;11.87;;;7.83;;
5937;SDS011;2994;51.220;4.412;2024-01-27T04:59:06;13.40;;;9.73;;
5937;SDS011;2994;51.220;4.412;2024-01-27T05:01:32;10.73;;;9.03;;
5937;SDS011;2994;51.220;4.412;2024-01-27T05:03:58;11.97;;;9.00;;
5937;SDS011;2994;51.220;4.412;2024-01-27T05:06:23;12.00;;;8.50;;
5937;SDS011;2994;51.220;4.412;2024-01-27T05:08:49;13.93;;;8.00;;
5937;SDS011;2994;51.220;4.412;2024-01-27T05:11:15;11.30;;;8.93;;
5937;SDS011;2994;51.220;4.412;2024-01-27T05:13:42;10.43;;;8.37;;
5937;SDS011;2994;51.220;4.412;2024-01-27T05:16:08;11.90;;;8.33;;
5937;SDS011;2994;51.220;4.412;2024-01-27T05:18:34;11.87;;;9.13;;
5937;SDS011;2994;51.220;4.412;2024-01-27T05:20:59;9.10;;;8.03;;
5937;SDS011;2994;51.220;4.412;2024-01-27T05:23:25;13.87;;;8.80;;
5937;SDS011;2994;51.220;4.412;2024-01-27T05:25:50;9.90;;;8.30;;
5937;SDS011;2994;51.220;4.412;2024-01-27T05:28:16;11.50;;;8.60;;
5937;SDS011;2994;51.220;4.412;2024-01-27T05:30:42;11.37;;;8.13;;
5937;SDS011;2994;51.220;4.412;2024-01-27T05:33:08;11.10;;;9.03;;
5937;SDS011;2994;51.220;4.412;2024-01-27T05:35:34;10.13;;;8.17;;
5937;SDS011;2994;51.220;4.412;2024-01-27T05:37:59;10.30;;;8.30;;
5937;SDS011;2994;51.220;4.412;2024-01-27T05:40:25;12.40;;;8.30;;
5937;SDS011;2994;51.220;4.412;2024-01-27T05:42:50;14.37;;;9.07;;
5937;SDS011;2994;51.220;4.412;2024-01-27T05:45:16;13.63;;;9.57;;
5937;SDS011;2994;51.220;4.412;2024-01-27T05:47:41;11.60;;;8.30;;
5937;SDS011;2994;51.220;4.412;2024-01-27T05:50:07;13.10;;;9.30;;
5937;SDS011;2994;51.220;4.412;2024-01-27T05:52:33;11.40;;;7.90;;
5937;SDS011;2994;51.220;4.412;2024-01-27T05:55:00;12.13;;;8.73;;
5937;SDS011;2994;51.220;4.412;2024-01-27T05:57:26;18.17;;;8.90;;
5937;SDS011;2994;51.220;4.412;2024-01-27T05:59:52;12.60;;;9.20;;
5937;SDS011;2994;51.220;4.412;2024-01-27T06:02:19;15.10;;;8.93;;
5937;SDS011;2994;51.220;4.412;2024-01-27T06:04:44;14.10;;;9.67;;
5937;SDS011;2994;51.220;4.412;2024-01-27T06:07:10;9.80;;;8.30;;
5937;SDS011;2994;51.220;4.412;2024-01-27T06:09:39;12.67;;;8.70;;
5937;SDS011;2994;51.220;4.412;2024-01-27T06:12:04;10.27;;;9.17;;
5937;SDS011;2994;51.220;4.412;2024-01-27T06:14:30;15.17;;;8.67;;
5937;SDS011;2994;51.220;4.412;2024-01-27T06:16:55;11.60;;;8.77;;
5937;SDS011;2994;51.220;4.412;2024-01-27T06:19:23;21.17;;;10.33;;
5937;SDS011;2994;51.220;4.412;2024-01-27T06:21:49;14.47;;;9.60;;
5937;SDS011;2994;51.220;4.412;2024-01-27T06:24:14;12.80;;;9.80;;
5937;SDS011;2994;51.220;4.412;2024-01-27T06:26:40;14.33;;;9.43;;
5937;SDS011;2994;51.220;4.412;2024-01-27T06:29:06;12.67;;;8.37;;
5937;SDS011;2994;51.220;4.412;2024-01-27T06:31:31;12.03;;;8.50;;
5937;SDS011;2994;51.220;4.412;2024-01-27T06:33:57;9.83;;;8.60;;
5937;SDS011;2994;51.220;4.412;2024-01-27T06:36:22;11.20;;;9.93;;
5937;SDS011;2994;51.220;4.412;2024-01-27T06:38:50;12.60;;;9.73;;
5937;SDS011;2994;51.220;4.412;2024-01-27T06:41:16;14.90;;;8.97;;
5937;SDS011;2994;51.220;4.412;2024-01-27T06:43:42;12.57;;;9.37;;
5937;SDS011;2994;51.220;4.412;2024-01-27T06:46:07;14.77;;;8.80;;
5937;SDS011;2994;51.220;4.412;2024-01-27T06:48:33;14.63;;;9.77;;
5937;SDS011;2994;51.220;4.412;2024-01-27T06:50:59;14.03;;;9.70;;
5937;SDS011;2994;51.220;4.412;2024-01-27T06:53:24;13.67;;;8.90;;
5937;SDS011;2994;51.220;4.412;2024-01-27T06:55:50;12.70;;;9.70;;
5937;SDS011;2994;51.220;4.412;2024-01-27T06:58:15;12.40;;;9.30;;
5937;SDS011;2994;51.220;4.412;2024-01-27T07:00:41;14.17;;;9.80;;
5937;SDS011;2994;51.220;4.412;2024-01-27T07:03:06;15.30;;;9.90;;
5937;SDS011;2994;51.220;4.412;2024-01-27T07:05:32;14.00;;;9.50;;
5937;SDS011;2994;51.220;4.412;2024-01-27T07:08:03;11.50;;;8.87;;
5937;SDS011;2994;51.220;4.412;2024-01-27T07:10:31;12.20;;;7.80;;
5937;SDS011;2994;51.220;4.412;2024-01-27T07:12:56;13.00;;;9.53;;
5937;SDS011;2994;51.220;4.412;2024-01-27T07:15:21;16.10;;;8.60;;
5937;SDS011;2994;51.220;4.412;2024-01-27T07:17:48;17.03;;;9.33;;
5937;SDS011;2994;51.220;4.412;2024-01-27T07:20:14;14.60;;;8.97;;
5937;SDS011;2994;51.220;4.412;2024-01-27T07:22:39;13.23;;;9.57;;
5937;SDS011;2994;51.220;4.412;2024-01-27T07:25:05;13.07;;;8.47;;
5937;SDS011;2994;51.220;4.412;2024-01-27T07:27:32;20.00;;;12.20;;
5937;SDS011;2994;51.220;4.412;2024-01-27T07:29:57;17.77;;;10.17;;
5937;SDS011;2994;51.220;4.412;2024-01-27T07:32:23;21.43;;;9.30;;
5937;SDS011;2994;51.220;4.412;2024-01-27T07:34:49;13.60;;;9.10;;
5937;SDS011;2994;51.220;4.412;2024-01-27T07:37:15;12.87;;;8.50;;
5937;SDS011;2994;51.220;4.412;2024-01-27T07:39:40;13.67;;;9.50;;
5937;SDS011;2994;51.220;4.412;2024-01-27T07:42:06;12.60;;;8.70;;
5937;SDS011;2994;51.220;4.412;2024-01-27T07:44:31;13.77;;;8.03;;
5937;SDS011;2994;51.220;4.412;2024-01-27T07:46:57;11.77;;;8.30;;
5937;SDS011;2994;51.220;4.412;2024-01-27T07:49:25;16.57;;;8.63;;
5937;SDS011;2994;51.220;4.412;2024-01-27T07:51:54;13.00;;;8.80;;
5937;SDS011;2994;51.220;4.412;2024-01-27T07:54:20;18.93;;;9.00;;
5937;SDS011;2994;51.220;4.412;2024-01-27T07:56:45;15.70;;;10.00;;
5937;SDS011;2994;51.220;4.412;2024-01-27T07:59:12;14.40;;;8.50;;
5937;SDS011;2994;51.220;4.412;2024-01-27T08:01:42;13.13;;;8.83;;
5937;SDS011;2994;51.220;4.412;2024-01-27T08:04:07;17.73;;;9.20;;
5937;SDS011;2994;51.220;4.412;2024-01-27T08:06:33;12.63;;;9.17;;
5937;SDS011;2994;51.220;4.412;2024-01-27T08:08:59;13.50;;;8.57;;
5937;SDS011;2994;51.220;4.412;2024-01-27T08:11:24;20.17;;;9.67;;
5937;SDS011;2994;51.220;4.412;2024-01-27T08:13:50;18.40;;;7.90;;
5937;SDS011;2994;51.220;4.412;2024-01-27T08:16:17;13.43;;;7.20;;
5937;SDS011;2994;51.220;4.412;2024-01-27T08:18:42;16.10;;;8.97;;
5937;SDS011;2994;51.220;4.412;2024-01-27T08:21:09;16.70;;;10.83;;
5937;SDS011;2994;51.220;4.412;2024-01-27T08:23:36;11.93;;;8.30;;
5937;SDS011;2994;51.220;4.412;2024-01-27T08:26:02;14.97;;;9.40;;
5937;SDS011;2994;51.220;4.412;2024-01-27T08:28:28;13.00;;;8.50;;
5937;SDS011;2994;51.220;4.412;2024-01-27T08:30:54;12.83;;;8.47;;
5937;SDS011;2994;51.220;4.412;2024-01-27T08:33:20;10.07;;;7.60;;
5937;SDS011;2994;51.220;4.412;2024-01-27T08:35:48;12.20;;;8.80;;
5937;SDS011;2994;51.220;4.412;2024-01-27T08:38:14;12.23;;;8.80;;
5937;SDS011;2994;51.220;4.412;2024-01-27T08:40:40;14.77;;;9.17;;
5937;SDS011;2994;51.220;4.412;2024-01-27T08:43:06;9.47;;;7.43;;
5937;SDS011;2994;51.220;4.412;2024-01-27T08:45:31;17.03;;;9.23;;
5937;SDS011;2994;51.220;4.412;2024-01-27T08:47:57;11.13;;;8.83;;
5937;SDS011;2994;51.220;4.412;2024-01-27T08:50:23;13.67;;;9.47;;
5937;SDS011;2994;51.220;4.412;2024-01-27T08:52:49;12.37;;;7.70;;
5937;SDS011;2994;51.220;4.412;2024-01-27T08:55:14;12.43;;;8.17;;
5937;SDS011;2994;51.220;4.412;2024-01-27T08:57:43;13.83;;;7.63;;
5937;SDS011;2994;51.220;4.412;2024-01-27T09:00:09;14.00;;;8.83;;
5937;SDS011;2994;51.220;4.412;2024-01-27T09:02:38;12.90;;;8.30;;
5937;SDS011;2994;51.220;4.412;2024-01-27T09:05:04;10.43;;;9.10;;
5937;SDS011;2994;51.220;4.412;2024-01-27T09:07:30;15.07;;;8.80;;
5937;SDS011;2994;51.220;4.412;2024-01-27T09:09:56;13.03;;;8.10;;
5937;SDS011;2994;51.220;4.412;2024-01-27T09:12:21;13.40;;;8.10;;
5937;SDS011;2994;51.220;4.412;2024-01-27T09:14:48;14.10;;;8.60;;
5937;SDS011;2994;51.220;4.412;2024-01-27T09:17:14;11.70;;;7.67;;
5937;SDS011;2994;51.220;4.412;2024-01-27T09:19:39;13.47;;;9.23;;
5937;SDS011;2994;51.220;4.412;2024-01-27T09:22:05;10.03;;;8.90;;
5937;SDS011;2994;51.220;4.412;2024-01-27T09:24:30;13.63;;;8.70;;
5937;SDS011;2994;51.220;4.412;2024-01-27T09:26:58;16.03;;;8.93;;
5937;SDS011;2994;51.220;4.412;2024-01-27T09:29:25;11.03;;;8.20;;
5937;SDS011;2994;51.220;4.412;2024-01-27T09:31:51;12.83;;;8.47;;
5937;SDS011;2994;51.220;4.412;2024-01-27T09:34:16;12.37;;;8.10;;
5937;SDS011;2994;51.220;4.412;2024-01-27T09:36:42;11.67;;;8.80;;
5937;SDS011;2994;51.220;4.412;2024-01-27T09:39:07;10.60;;;7.53;;
5937;SDS011;2994;51.220;4.412;2024-01-27T09:41:33;17.20;;;8.37;;
5937;SDS011;2994;51.220;4.412;2024-01-27T09:44:02;11.80;;;7.60;;
5937;SDS011;2994;51.220;4.412;2024-01-27T09:46:29;17.30;;;8.80;;
5937;SDS011;2994;51.220;4.412;2024-01-27T09:48:56;13.57;;;7.73;;
5937;SDS011;2994;51.220;4.412;2024-01-27T09:51:21;12.27;;;8.33;;
5937;SDS011;2994;51.220;4.412;2024-01-27T09:53:49;12.73;;;7.43;;
5937;SDS011;2994;51.220;4.412;2024-01-27T09:56:16;11.73;;;7.47;;
5937;SDS011;2994;51.220;4.412;2024-01-27T09:58:43;13.33;;;7.63;;
5937;SDS011;2994;51.220;4.412;2024-01-27T10:01:10;13.00;;;7.77;;
5937;SDS011;2994;51.220;4.412;2024-01-27T10:03:36;16.30;;;7.00;;
5937;SDS011;2994;51.220;4.412;2024-01-27T10:06:06;13.77;;;8.10;;
5937;SDS011;2994;51.220;4.412;2024-01-27T10:08:34;12.53;;;8.40;;
5937;SDS011;2994;51.220;4.412;2024-01-27T10:10:59;18.50;;;8.17;;
5937;SDS011;2994;51.220;4.412;2024-01-27T10:13:32;15.50;;;8.90;;
5937;SDS011;2994;51.220;4.412;2024-01-27T10:16:01;13.63;;;8.00;;
5937;SDS011;2994;51.220;4.412;2024-01-27T10:18:37;16.10;;;8.00;;
5937;SDS011;2994;51.220;4.412;2024-01-27T10:21:16;10.50;;;7.17;;
5937;SDS011;2994;51.220;4.412;2024-01-27T10:23:43;12.07;;;7.63;;
5937;SDS011;2994;51.220;4.412;2024-01-27T10:26:09;11.60;;;7.77;;
5937;SDS011;2994;51.220;4.412;2024-01-27T10:28:35;11.80;;;7.13;;
5937;SDS011;2994;51.220;4.412;2024-01-27T10:31:10;9.97;;;7.50;;
5937;SDS011;2994;51.220;4.412;2024-01-27T10:33:36;14.40;;;7.40;;
5937;SDS011;2994;51.220;4.412;2024-01-27T10:36:02;10.97;;;6.80;;
5937;SDS011;2994;51.220;4.412;2024-01-27T10:38:38;9.97;;;6.90;;
5937;SDS011;2994;51.220;4.412;2024-01-27T10:41:07;11.70;;;7.00;;
5937;SDS011;2994;51.220;4.412;2024-01-27T10:43:37;14.10;;;8.30;;
5937;SDS011;2994;51.220;4.412;2024-01-27T10:46:07;13.67;;;6.87;;
5937;SDS011;2994;51.220;4.412;2024-01-27T10:48:40;11.63;;;6.60;;
5937;SDS011;2994;51.220;4.412;2024-01-27T10:51:07;13.27;;;7.43;;
5937;SDS011;2994;51.220;4.412;2024-01-27T10:53:35;11.90;;;6.40;;
5937;SDS011;2994;51.220;4.412;2024-01-27T10:56:02;10.67;;;7.20;;
5937;SDS011;2994;51.220;4.412;2024-01-27T10:58:34;12.53;;;6.60;;
5937;SDS011;2994;51.220;4.412;2024-01-27T11:01:07;11.83;;;6.80;;
5937;SDS011;2994;51.220;4.412;2024-01-27T11:03:36;13.43;;;6.60;;
5937;SDS011;2994;51.220;4.412;2024-01-27T11:06:04;17.83;;;6.67;;
5937;SDS011;2994;51.220;4.412;2024-01-27T11:08:36;11.73;;;6.37;;
5937;SDS011;2994;51.220;4.412;2024-01-27T11:11:03;11.33;;;6.30;;
5937;SDS011;2994;51.220;4.412;2024-01-27T11:18:54;13.30;;;6.03;;
5937;SDS011;2994;51.220;4.412;2024-01-27T11:21:42;13.80;;;5.70;;
5937;SDS011;2994;51.220;4.412;2024-01-27T11:26:43;12.30;;;5.93;;
5937;SDS011;2994;51.220;4.412;2024-01-27T11:29:09;10.30;;;5.93;;
5937;SDS011;2994;51.220;4.412;2024-01-27T11:31:43;11.80;;;5.93;;
5937;SDS011;2994;51.220;4.412;2024-01-27T11:34:10;12.50;;;5.57;;
5937;SDS011;2994;51.220;4.412;2024-01-27T11:36:41;13.53;;;5.90;;
5937;SDS011;2994;51.220;4.412;2024-01-27T11:39:22;9.97;;;5.87;;
5937;SDS011;2994;51.220;4.412;2024-01-27T11:41:48;12.87;;;5.47;;
5937;SDS011;2994;51.220;4.412;2024-01-27T11:44:13;7.97;;;5.80;;
5937;SDS011;2994;51.220;4.412;2024-01-27T11:46:40;9.53;;;5.37;;
5937;SDS011;2994;51.220;4.412;2024-01-27T11:49:06;6.30;;;4.50;;
5937;SDS011;2994;51.220;4.412;2024-01-27T11:51:31;11.17;;;5.93;;
5937;SDS011;2994;51.220;4.412;2024-01-27T11:53:57;10.70;;;5.60;;
5937;SDS011;2994;51.220;4.412;2024-01-27T11:56:22;9.20;;;4.63;;
5937;SDS011;2994;51.220;4.412;2024-01-27T11:58:48;9.00;;;5.17;;
5937;SDS011;2994;51.220;4.412;2024-01-27T12:01:14;8.47;;;5.27;;
5937;SDS011;2994;51.220;4.412;2024-01-27T12:03:43;9.83;;;5.80;;
5937;SDS011;2994;51.220;4.412;2024-01-27T12:06:12;14.57;;;5.80;;
5937;SDS011;2994;51.220;4.412;2024-01-27T12:08:41;10.20;;;4.77;;
5937;SDS011;2994;51.220;4.412;2024-01-27T12:11:15;9.13;;;5.40;;
5937;SDS011;2994;51.220;4.412;2024-01-27T12:13:44;10.50;;;4.97;;
5937;SDS011;2994;51.220;4.412;2024-01-27T12:16:09;7.57;;;5.23;;
5937;SDS011;2994;51.220;4.412;2024-01-27T12:18:35;12.07;;;6.33;;
5937;SDS011;2994;51.220;4.412;2024-01-27T12:21:06;10.03;;;6.07;;
5937;SDS011;2994;51.220;4.412;2024-01-27T12:23:34;13.40;;;5.47;;
5937;SDS011;2994;51.220;4.412;2024-01-27T12:26:00;10.97;;;5.67;;
5937;SDS011;2994;51.220;4.412;2024-01-27T12:28:26;11.97;;;5.20;;
5937;SDS011;2994;51.220;4.412;2024-01-27T12:30:52;9.00;;;5.10;;
5937;SDS011;2994;51.220;4.412;2024-01-27T12:33:18;15.73;;;5.60;;
5937;SDS011;2994;51.220;4.412;2024-01-27T12:35:48;10.20;;;5.03;;
5937;SDS011;2994;51.220;4.412;2024-01-27T12:38:14;12.07;;;5.60;;
5937;SDS011;2994;51.220;4.412;2024-01-27T12:40:39;15.47;;;6.90;;
5937;SDS011;2994;51.220;4.412;2024-01-27T12:43:05;13.70;;;6.33;;
5937;SDS011;2994;51.220;4.412;2024-01-27T12:45:31;9.80;;;6.00;;
5937;SDS011;2994;51.220;4.412;2024-01-27T12:48:00;10.23;;;5.60;;
5937;SDS011;2994;51.220;4.412;2024-01-27T12:50:25;14.13;;;6.90;;
5937;SDS011;2994;51.220;4.412;2024-01-27T12:52:54;13.30;;;6.10;;
5937;SDS011;2994;51.220;4.412;2024-01-27T12:55:20;15.53;;;6.10;;
5937;SDS011;2994;51.220;4.412;2024-01-27T12:57:46;12.20;;;6.60;;
5937;SDS011;2994;51.220;4.412;2024-01-27T13:00:12;9.90;;;5.67;;
5937;SDS011;2994;51.220;4.412;2024-01-27T13:02:40;16.50;;;8.80;;
5937;SDS011;2994;51.220;4.412;2024-01-27T13:05:07;14.87;;;8.50;;
5937;SDS011;2994;51.220;4.412;2024-01-27T13:07:33;17.43;;;8.50;;
5937;SDS011;2994;51.220;4.412;2024-01-27T13:09:59;18.13;;;9.53;;
5937;SDS011;2994;51.220;4.412;2024-01-27T13:12:25;20.10;;;9.00;;
5937;SDS011;2994;51.220;4.412;2024-01-27T13:14:50;23.97;;;11.40;;
5937;SDS011;2994;51.220;4.412;2024-01-27T13:17:16;16.47;;;8.20;;
5937;SDS011;2994;51.220;4.412;2024-01-27T13:19:45;14.07;;;8.17;;
5937;SDS011;2994;51.220;4.412;2024-01-27T13:22:11;12.10;;;7.60;;
5937;SDS011;2994;51.220;4.412;2024-01-27T13:24:37;10.37;;;7.03;;
5937;SDS011;2994;51.220;4.412;2024-01-27T13:27:06;10.43;;;5.43;;
5937;SDS011;2994;51.220;4.412;2024-01-27T13:29:33;13.30;;;5.90;;
5937;SDS011;2994;51.220;4.412;2024-01-27T13:31:59;9.37;;;6.40;;
5937;SDS011;2994;51.220;4.412;2024-01-27T13:34:27;10.00;;;5.70;;
5937;SDS011;2994;51.220;4.412;2024-01-27T13:36:56;9.87;;;5.10;;
5937;SDS011;2994;51.220;4.412;2024-01-27T13:39:23;13.77;;;4.80;;
5937;SDS011;2994;51.220;4.412;2024-01-27T13:41:49;9.70;;;4.17;;
5937;SDS011;2994;51.220;4.412;2024-01-27T13:44:17;7.80;;;4.60;;
5937;SDS011;2994;51.220;4.412;2024-01-27T13:46:43;8.20;;;4.30;;
5937;SDS011;2994;51.220;4.412;2024-01-27T13:49:13;7.37;;;5.00;;
5937;SDS011;2994;51.220;4.412;2024-01-27T13:51:39;10.30;;;4.57;;
5937;SDS011;2994;51.220;4.412;2024-01-27T13:54:04;8.70;;;4.17;;
5937;SDS011;2994;51.220;4.412;2024-01-27T13:56:34;9.07;;;4.60;;
5937;SDS011;2994;51.220;4.412;2024-01-27T13:58:59;10.43;;;4.37;;
5937;SDS011;2994;51.220;4.412;2024-01-27T14:01:25;10.93;;;4.27;;
5937;SDS011;2994;51.220;4.412;2024-01-27T14:03:54;8.10;;;4.27;;
5937;SDS011;2994;51.220;4.412;2024-01-27T14:06:20;13.60;;;5.40;;
5937;SDS011;2994;51.220;4.412;2024-01-27T14:08:46;7.67;;;4.40;;
5937;SDS011;2994;51.220;4.412;2024-01-27T14:11:11;8.27;;;4.37;;
5937;SDS011;2994;51.220;4.412;2024-01-27T14:13:37;6.47;;;4.17;;
5937;SDS011;2994;51.220;4.412;2024-01-27T14:16:03;9.33;;;4.67;;
5937;SDS011;2994;51.220;4.412;2024-01-27T14:18:28;7.50;;;5.17;;
5937;SDS011;2994;51.220;4.412;2024-01-27T14:20:56;5.00;;;3.50;;
5937;SDS011;2994;51.220;4.412;2024-01-27T14:29:56;7.13;;;3.60;;
5937;SDS011;2994;51.220;4.412;2024-01-27T14:35:56;10.87;;;4.03;;
5937;SDS011;2994;51.220;4.412;2024-01-27T14:38:25;5.93;;;4.23;;
5937;SDS011;2994;51.220;4.412;2024-01-27T14:47:28;5.80;;;3.77;;
5937;SDS011;2994;51.220;4.412;2024-01-27T14:49:57;7.13;;;4.50;;
5937;SDS011;2994;51.220;4.412;2024-01-27T14:52:25;5.97;;;3.40;;
5937;SDS011;2994;51.220;4.412;2024-01-27T14:55:09;7.17;;;3.77;;
5937;SDS011;2994;51.220;4.412;2024-01-27T14:57:46;8.03;;;4.23;;
5937;SDS011;2994;51.220;4.412;2024-01-27T15:00:18;9.30;;;4.97;;
5937;SDS011;2994;51.220;4.412;2024-01-27T15:02:58;8.97;;;4.60;;
5937;SDS011;2994;51.220;4.412;2024-01-27T15:05:38;9.93;;;4.60;;
5937;SDS011;2994;51.220;4.412;2024-01-27T15:14:01;8.97;;;4.40;;
5937;SDS011;2994;51.220;4.412;2024-01-27T15:20:00;6.13;;;4.00;;
5937;SDS011;2994;51.220;4.412;2024-01-27T15:23:07;8.27;;;4.37;;
5937;SDS011;2994;51.220;4.412;2024-01-27T15:25:39;8.07;;;4.37;;
5937;SDS011;2994;51.220;4.412;2024-01-27T15:31:59;6.93;;;3.50;;
5937;SDS011;2994;51.220;4.412;2024-01-27T15:34:25;9.00;;;3.90;;
5937;SDS011;2994;51.220;4.412;2024-01-27T15:36:50;6.80;;;3.53;;
5937;SDS011;2994;51.220;4.412;2024-01-27T15:39:16;8.50;;;3.27;;
5937;SDS011;2994;51.220;4.412;2024-01-27T15:41:41;6.67;;;3.87;;